createdAt,value
2022-11-19T00:00:35.785Z,1004.14
2022-11-19T00:01:35.755Z,1004.13
2022-11-19T00:02:35.766Z,1004.13
2022-11-19T00:03:35.647Z,1004.13
2022-11-19T00:04:35.599Z,1004.06
2022-11-19T00:05:35.633Z,1004.10
2022-11-19T00:06:35.638Z,1004.10
2022-11-19T00:07:35.691Z,1004.11
2022-11-19T00:08:35.539Z,1004.13
2022-11-19T00:09:35.598Z,1004.10
2022-11-19T00:10:35.567Z,1004.14
2022-11-19T00:11:35.607Z,1004.10
2022-11-19T00:12:35.568Z,1004.12
2022-11-19T00:13:35.526Z,1004.13
2022-11-19T00:14:35.456Z,1004.05
2022-11-19T00:15:35.545Z,1004.09
2022-11-19T00:16:35.547Z,1004.03
2022-11-19T00:17:35.556Z,1004.15
2022-11-19T00:18:35.421Z,1004.15
2022-11-19T00:19:35.529Z,1004.15
2022-11-19T00:20:35.465Z,1004.12
2022-11-19T00:21:35.573Z,1004.17
2022-11-19T00:22:35.373Z,1004.12
2022-11-19T00:23:35.346Z,1004.13
2022-11-19T00:24:35.389Z,1004.11
2022-11-19T00:25:35.511Z,1004.11
2022-11-19T00:26:35.342Z,1004.13
2022-11-19T00:27:35.426Z,1004.15
2022-11-19T00:28:35.340Z,1004.14
2022-11-19T00:29:35.309Z,1004.12
2022-11-19T00:30:47.881Z,1004.20
2022-11-19T00:31:36.433Z,1004.16
2022-11-19T00:32:35.223Z,1004.23
2022-11-19T00:33:35.331Z,1004.17
2022-11-19T00:34:35.303Z,1004.22
2022-11-19T00:35:35.218Z,1004.24
2022-11-19T00:36:35.196Z,1004.23
2022-11-19T00:37:35.240Z,1004.26
2022-11-19T00:38:35.288Z,1004.25
2022-11-19T00:39:35.181Z,1004.20
2022-11-19T00:40:35.231Z,1004.21
2022-11-19T00:41:35.295Z,1004.19
2022-11-19T00:42:35.194Z,1004.19
2022-11-19T00:43:35.138Z,1004.27
2022-11-19T00:44:37.349Z,1004.22
2022-11-19T00:45:35.174Z,1004.21
2022-11-19T00:46:35.209Z,1004.28
2022-11-19T00:47:35.103Z,1004.25
2022-11-19T00:48:35.167Z,1004.27
2022-11-19T00:49:35.282Z,1004.31
2022-11-19T00:50:35.042Z,1004.30
2022-11-19T00:51:35.102Z,1004.38
2022-11-19T00:52:35.037Z,1004.34
2022-11-19T00:53:35.084Z,1004.37
2022-11-19T00:54:35.034Z,1004.31
2022-11-19T00:55:34.950Z,1004.32
2022-11-19T00:56:35.041Z,1004.35
2022-11-19T00:57:34.970Z,1004.29
2022-11-19T00:58:34.999Z,1004.34
2022-11-19T00:59:34.986Z,1004.38
2022-11-19T01:00:34.991Z,1004.35
2022-11-19T01:01:35.086Z,1004.34
2022-11-19T01:02:34.902Z,1004.37
2022-11-19T01:03:34.917Z,1004.39
2022-11-19T01:04:34.827Z,1004.35
2022-11-19T01:05:34.934Z,1004.38
2022-11-19T01:06:34.877Z,1004.41
2022-11-19T01:07:35.338Z,1004.45
2022-11-19T01:08:34.836Z,1004.49
2022-11-19T01:09:55.811Z,1004.46
2022-11-19T01:10:34.786Z,1004.45
2022-11-19T01:11:34.793Z,1004.40
2022-11-19T01:12:34.807Z,1004.50
2022-11-19T01:13:34.784Z,1004.48
2022-11-19T01:14:34.820Z,1004.50
2022-11-19T01:15:34.728Z,1004.53
2022-11-19T01:16:34.812Z,1004.52
2022-11-19T01:17:34.759Z,1004.51
2022-11-19T01:18:34.670Z,1004.51
2022-11-19T01:19:34.750Z,1004.60
2022-11-19T01:20:34.825Z,1004.54
2022-11-19T01:21:34.658Z,1004.55
2022-11-19T01:22:34.854Z,1004.58
2022-11-19T01:23:34.656Z,1004.66
2022-11-19T01:24:34.749Z,1004.67
2022-11-19T01:25:34.675Z,1004.62
2022-11-19T01:26:34.676Z,1004.54
2022-11-19T01:27:34.580Z,1004.58
2022-11-19T01:28:34.782Z,1004.66
2022-11-19T01:29:34.689Z,1004.61
2022-11-19T01:30:34.627Z,1004.61
2022-11-19T01:31:34.830Z,1004.64
2022-11-19T01:32:34.750Z,1004.62
2022-11-19T01:33:34.519Z,1004.67
2022-11-19T01:34:34.645Z,1004.72
2022-11-19T01:35:34.483Z,1004.65
2022-11-19T01:36:34.450Z,1004.75
2022-11-19T01:37:34.518Z,1004.79
2022-11-19T01:38:34.453Z,1004.83
2022-11-19T01:39:34.460Z,1004.78
2022-11-19T01:40:34.453Z,1004.77
2022-11-19T01:41:34.413Z,1004.76
2022-11-19T01:42:34.458Z,1004.79
2022-11-19T01:43:34.349Z,1004.82
2022-11-19T01:44:34.342Z,1004.82
2022-11-19T01:45:34.488Z,1004.77
2022-11-19T01:46:34.375Z,1004.77
2022-11-19T01:47:34.330Z,1004.86
2022-11-19T01:48:34.297Z,1004.89
2022-11-19T01:49:34.350Z,1004.80
2022-11-19T01:50:34.346Z,1004.83
2022-11-19T01:51:34.263Z,1004.84
2022-11-19T01:52:34.351Z,1004.86
2022-11-19T01:53:34.305Z,1004.85
2022-11-19T01:54:34.239Z,1004.92
2022-11-19T01:55:34.376Z,1004.88
2022-11-19T01:56:34.279Z,1004.91
2022-11-19T01:57:34.255Z,1004.93
2022-11-19T01:58:34.149Z,1004.92
2022-11-19T01:59:34.190Z,1004.92
2022-11-19T02:00:34.304Z,1004.96
2022-11-19T02:01:34.402Z,1004.96
2022-11-19T02:02:34.119Z,1004.97
2022-11-19T02:03:34.118Z,1005.03
2022-11-19T02:04:34.206Z,1004.95
2022-11-19T02:05:34.304Z,1004.93
2022-11-19T02:06:34.146Z,1004.95
2022-11-19T02:07:34.139Z,1004.98
2022-11-19T02:08:34.208Z,1004.96
2022-11-19T02:09:34.029Z,1005.03
2022-11-19T02:10:34.017Z,1005.01
2022-11-19T02:11:34.127Z,1004.98
2022-11-19T02:12:34.068Z,1004.97
2022-11-19T02:13:34.090Z,1004.97
2022-11-19T02:14:34.100Z,1005.07
2022-11-19T02:15:33.962Z,1005.03
2022-11-19T02:16:33.961Z,1005.02
2022-11-19T02:17:33.962Z,1005.00
2022-11-19T02:18:34.017Z,1004.99
2022-11-19T02:19:33.927Z,1005.03
2022-11-19T02:20:33.908Z,1005.00
2022-11-19T02:21:33.916Z,1005.07
2022-11-19T02:22:33.911Z,1005.05
2022-11-19T02:23:33.889Z,1005.09
2022-11-19T02:24:34.049Z,1005.09
2022-11-19T02:25:33.888Z,1005.07
2022-11-19T02:26:33.859Z,1005.09
2022-11-19T02:27:33.871Z,1005.09
2022-11-19T02:28:33.963Z,1005.08
2022-11-19T02:29:33.803Z,1005.09
2022-11-19T02:30:33.840Z,1005.17
2022-11-19T02:31:33.753Z,1005.16
2022-11-19T02:32:33.769Z,1005.13
2022-11-19T02:33:33.781Z,1005.13
2022-11-19T02:34:33.825Z,1005.21
2022-11-19T02:35:34.079Z,1005.16
2022-11-19T02:36:33.685Z,1005.16
2022-11-19T02:37:33.765Z,1005.19
2022-11-19T02:38:33.639Z,1005.17
2022-11-19T02:39:33.683Z,1005.19
2022-11-19T02:40:33.727Z,1005.20
2022-11-19T02:41:33.722Z,1005.17
2022-11-19T02:42:33.605Z,1005.17
2022-11-19T02:43:33.680Z,1005.18
2022-11-19T02:44:33.667Z,1005.17
2022-11-19T02:45:33.562Z,1005.17
2022-11-19T02:46:33.768Z,1005.21
2022-11-19T02:47:33.547Z,1005.21
2022-11-19T02:48:33.617Z,1005.21
2022-11-19T02:49:33.476Z,1005.22
2022-11-19T02:50:33.551Z,1005.21
2022-11-19T02:51:33.597Z,1005.22
2022-11-19T02:52:33.474Z,1005.24
2022-11-19T02:53:33.521Z,1005.20
2022-11-19T02:54:33.527Z,1005.22
2022-11-19T02:55:33.496Z,1005.25
2022-11-19T02:56:33.438Z,1005.20
2022-11-19T02:57:33.515Z,1005.19
2022-11-19T02:58:33.501Z,1005.20
2022-11-19T02:59:33.415Z,1005.18
2022-11-19T03:00:33.446Z,1005.22
2022-11-19T03:01:33.596Z,1005.24
2022-11-19T03:02:33.408Z,1005.19
2022-11-19T03:03:33.354Z,1005.25
2022-11-19T03:04:33.358Z,1005.21
2022-11-19T03:05:33.621Z,1005.20
2022-11-19T03:06:33.325Z,1005.20
2022-11-19T03:07:33.404Z,1005.20
2022-11-19T03:08:33.315Z,1005.21
2022-11-19T03:09:33.383Z,1005.24
2022-11-19T03:10:33.216Z,1005.21
2022-11-19T03:11:33.209Z,1005.16
2022-11-19T03:12:33.330Z,1005.20
2022-11-19T03:13:33.290Z,1005.14
2022-11-19T03:14:33.200Z,1005.20
2022-11-19T03:15:33.238Z,1005.15
2022-11-19T03:16:33.302Z,1005.17
2022-11-19T03:17:33.256Z,1005.20
2022-11-19T03:18:33.140Z,1005.25
2022-11-19T03:19:33.271Z,1005.26
2022-11-19T03:20:33.138Z,1005.29
2022-11-19T03:21:33.244Z,1005.28
2022-11-19T03:22:33.206Z,1005.28
2022-11-19T03:23:33.098Z,1005.29
2022-11-19T03:24:33.185Z,1005.26
2022-11-19T03:25:33.064Z,1005.29
2022-11-19T03:26:33.187Z,1005.22
2022-11-19T03:27:33.140Z,1005.25
2022-11-19T03:28:33.305Z,1005.28
2022-11-19T03:29:33.177Z,1005.30
2022-11-19T03:30:33.034Z,1005.32
2022-11-19T03:31:33.044Z,1005.39
2022-11-19T03:32:33.064Z,1005.39
2022-11-19T03:33:33.005Z,1005.41
2022-11-19T03:34:33.005Z,1005.42
2022-11-19T03:35:33.030Z,1005.39
2022-11-19T03:36:33.036Z,1005.41
2022-11-19T03:37:32.965Z,1005.35
2022-11-19T03:38:32.949Z,1005.43
2022-11-19T03:39:33.202Z,1005.48
2022-11-19T03:40:32.930Z,1005.48
2022-11-19T03:41:33.033Z,1005.45
2022-11-19T03:42:32.916Z,1005.51
2022-11-19T03:43:33.083Z,1005.51
2022-11-19T03:44:32.905Z,1005.55
2022-11-19T03:45:32.807Z,1005.58
2022-11-19T03:46:32.923Z,1005.51
2022-11-19T03:47:32.921Z,1005.54
2022-11-19T03:48:32.919Z,1005.57
2022-11-19T03:49:32.784Z,1005.55
2022-11-19T03:50:32.955Z,1005.60
2022-11-19T03:51:32.931Z,1005.52
2022-11-19T03:52:32.777Z,1005.57
2022-11-19T03:53:32.729Z,1005.59
2022-11-19T03:54:32.700Z,1005.54
2022-11-19T03:55:32.806Z,1005.51
2022-11-19T03:56:32.790Z,1005.51
2022-11-19T03:57:32.666Z,1005.47
2022-11-19T03:58:32.768Z,1005.51
2022-11-19T03:59:32.629Z,1005.51
2022-11-19T04:00:32.674Z,1005.50
2022-11-19T04:01:32.783Z,1005.53
2022-11-19T04:02:32.586Z,1005.53
2022-11-19T04:03:32.603Z,1005.51
2022-11-19T04:04:32.813Z,1005.54
2022-11-19T04:05:32.672Z,1005.53
2022-11-19T04:06:32.654Z,1005.50
2022-11-19T04:07:32.624Z,1005.52
2022-11-19T04:08:32.751Z,1005.55
2022-11-19T04:09:32.630Z,1005.60
2022-11-19T04:10:32.578Z,1005.60
2022-11-19T04:11:32.570Z,1005.66
2022-11-19T04:12:32.565Z,1005.67
2022-11-19T04:13:32.428Z,1005.64
2022-11-19T04:14:32.620Z,1005.58
2022-11-19T04:15:32.588Z,1005.67
2022-11-19T04:16:32.471Z,1005.65
2022-11-19T04:17:32.441Z,1005.65
2022-11-19T04:18:32.499Z,1005.64
2022-11-19T04:19:32.614Z,1005.68
2022-11-19T04:20:32.348Z,1005.66
2022-11-19T04:21:32.615Z,1005.71
2022-11-19T04:22:32.447Z,1005.75
2022-11-19T04:23:32.389Z,1005.72
2022-11-19T04:24:32.329Z,1005.68
2022-11-19T04:25:32.388Z,1005.72
2022-11-19T04:26:32.248Z,1005.74
2022-11-19T04:27:32.351Z,1005.70
2022-11-19T04:28:32.418Z,1005.69
2022-11-19T04:29:32.354Z,1005.72
2022-11-19T04:30:32.278Z,1005.70
2022-11-19T04:31:32.299Z,1005.70
2022-11-19T04:32:32.203Z,1005.78
2022-11-19T04:33:32.384Z,1005.73
2022-11-19T04:34:32.390Z,1005.84
2022-11-19T04:35:32.257Z,1005.81
2022-11-19T04:36:32.153Z,1005.87
2022-11-19T04:37:32.503Z,1005.83
2022-11-19T04:38:32.236Z,1005.82
2022-11-19T04:39:32.419Z,1005.91
2022-11-19T04:40:32.143Z,1005.89
2022-11-19T04:41:32.254Z,1005.88
2022-11-19T04:42:32.107Z,1005.90
2022-11-19T04:43:32.122Z,1005.90
2022-11-19T04:44:32.006Z,1005.96
2022-11-19T04:45:32.356Z,1006.06
2022-11-19T04:46:32.174Z,1005.95
2022-11-19T04:47:32.062Z,1005.94
2022-11-19T04:48:32.041Z,1005.94
2022-11-19T04:49:32.078Z,1005.94
2022-11-19T04:50:31.951Z,1005.88
2022-11-19T04:51:31.989Z,1005.92
2022-11-19T04:52:36.336Z,1005.97
2022-11-19T04:53:33.105Z,1006.02
2022-11-19T04:54:31.953Z,1006.04
2022-11-19T04:55:31.913Z,1006.01
2022-11-19T04:56:31.995Z,1006.04
2022-11-19T04:57:31.980Z,1006.11
2022-11-19T04:58:31.929Z,1006.09
2022-11-19T04:59:32.366Z,1006.13
2022-11-19T05:00:32.047Z,1006.14
2022-11-19T05:01:31.983Z,1006.16
2022-11-19T05:02:31.813Z,1006.16
2022-11-19T05:03:31.964Z,1006.16
2022-11-19T05:04:31.919Z,1006.15
2022-11-19T05:05:31.801Z,1006.18
2022-11-19T05:06:31.829Z,1006.18
2022-11-19T05:07:32.069Z,1006.12
2022-11-19T05:08:31.807Z,1006.19
2022-11-19T05:09:31.836Z,1006.20
2022-11-19T05:10:31.734Z,1006.20
2022-11-19T05:11:31.821Z,1006.22
2022-11-19T05:12:31.705Z,1006.19
2022-11-19T05:13:31.771Z,1006.23
2022-11-19T05:14:31.706Z,1006.22
2022-11-19T05:15:31.750Z,1006.23
2022-11-19T05:16:31.764Z,1006.25
2022-11-19T05:17:31.703Z,1006.26
2022-11-19T05:18:31.774Z,1006.25
2022-11-19T05:19:31.749Z,1006.29
2022-11-19T05:20:31.772Z,1006.25
2022-11-19T05:21:31.744Z,1006.33
2022-11-19T05:22:31.712Z,1006.35
2022-11-19T05:23:31.704Z,1006.31
2022-11-19T05:24:31.548Z,1006.38
2022-11-19T05:25:31.738Z,1006.33
2022-11-19T05:26:31.633Z,1006.31
2022-11-19T05:27:31.533Z,1006.32
2022-11-19T05:28:38.589Z,1006.36
2022-11-19T05:29:32.439Z,1006.38
2022-11-19T05:30:31.450Z,1006.40
2022-11-19T05:31:31.562Z,1006.46
2022-11-19T05:32:31.440Z,1006.44
2022-11-19T05:33:34.332Z,1006.47
2022-11-19T05:34:31.587Z,1006.43
2022-11-19T05:35:31.470Z,1006.45
2022-11-19T05:36:31.539Z,1006.48
2022-11-19T05:37:31.419Z,1006.51
2022-11-19T05:38:31.395Z,1006.45
2022-11-19T05:39:31.499Z,1006.45
2022-11-19T05:40:31.335Z,1006.43
2022-11-19T05:41:31.563Z,1006.54
2022-11-19T05:42:31.363Z,1006.56
2022-11-19T05:43:31.287Z,1006.57
2022-11-19T05:44:31.281Z,1006.50
2022-11-19T05:45:31.350Z,1006.54
2022-11-19T05:46:31.357Z,1006.49
2022-11-19T05:47:31.369Z,1006.53
2022-11-19T05:48:31.337Z,1006.51
2022-11-19T05:49:31.578Z,1006.51
2022-11-19T05:50:31.250Z,1006.51
2022-11-19T05:51:31.381Z,1006.50
2022-11-19T05:52:31.400Z,1006.54
2022-11-19T05:53:31.194Z,1006.48
2022-11-19T05:54:31.300Z,1006.47
2022-11-19T05:55:31.303Z,1006.53
2022-11-19T05:56:31.233Z,1006.57
2022-11-19T05:57:31.379Z,1006.58
2022-11-19T05:58:31.118Z,1006.58
2022-11-19T05:59:31.098Z,1006.59
2022-11-19T06:00:31.240Z,1006.61
2022-11-19T06:01:31.121Z,1006.62
2022-11-19T06:02:31.240Z,1006.60
2022-11-19T06:03:31.231Z,1006.64
2022-11-19T06:04:31.068Z,1006.69
2022-11-19T06:05:34.680Z,1006.69
2022-11-19T06:06:32.050Z,1006.72
2022-11-19T06:07:31.165Z,1006.70
2022-11-19T06:08:31.036Z,1006.70
2022-11-19T06:09:31.281Z,1006.72
2022-11-19T06:10:30.986Z,1006.77
2022-11-19T06:11:31.099Z,1006.79
2022-11-19T06:12:31.009Z,1006.73
2022-11-19T06:13:30.984Z,1006.73
2022-11-19T06:14:30.983Z,1006.75
2022-11-19T06:15:31.037Z,1006.77
2022-11-19T06:16:30.910Z,1006.79
2022-11-19T06:17:30.962Z,1006.85
2022-11-19T06:18:31.047Z,1006.77
2022-11-19T06:19:30.872Z,1006.82
2022-11-19T06:20:30.835Z,1006.86
2022-11-19T06:21:31.010Z,1006.84
2022-11-19T06:22:30.867Z,1006.87
2022-11-19T06:23:30.796Z,1006.85
2022-11-19T06:24:30.916Z,1006.88
2022-11-19T06:25:30.934Z,1006.91
2022-11-19T06:26:30.765Z,1006.87
2022-11-19T06:27:30.837Z,1006.85
2022-11-19T06:28:30.830Z,1006.87
2022-11-19T06:29:30.742Z,1006.86
2022-11-19T06:30:30.824Z,1006.89
2022-11-19T06:31:30.869Z,1006.93
2022-11-19T06:32:30.710Z,1006.89
2022-11-19T06:33:30.776Z,1006.86
2022-11-19T06:34:30.904Z,1006.90
2022-11-19T06:35:30.662Z,1006.92
2022-11-19T06:36:36.104Z,1006.88
2022-11-19T06:37:31.685Z,1006.95
2022-11-19T06:38:30.597Z,1006.93
2022-11-19T06:39:30.776Z,1006.93
2022-11-19T06:40:30.768Z,1006.91
2022-11-19T06:41:30.596Z,1007.03
2022-11-19T06:42:30.617Z,1006.97
2022-11-19T06:43:30.600Z,1006.97
2022-11-19T06:44:30.546Z,1006.99
2022-11-19T06:45:30.579Z,1007.09
2022-11-19T06:46:30.497Z,1006.96
2022-11-19T06:47:30.620Z,1007.10
2022-11-19T06:48:30.572Z,1007.11
2022-11-19T06:49:30.486Z,1007.13
2022-11-19T06:50:30.464Z,1007.08
2022-11-19T06:51:30.441Z,1007.10
2022-11-19T06:52:30.606Z,1007.14
2022-11-19T06:53:30.508Z,1007.18
2022-11-19T06:54:30.415Z,1007.19
2022-11-19T06:55:30.450Z,1007.11
2022-11-19T06:56:30.578Z,1007.28
2022-11-19T06:57:30.414Z,1007.20
2022-11-19T06:58:30.355Z,1007.22
2022-11-19T06:59:30.423Z,1007.22
2022-11-19T07:00:30.518Z,1007.20
2022-11-19T07:01:30.555Z,1007.27
2022-11-19T07:02:30.303Z,1007.24
2022-11-19T07:03:30.293Z,1007.26
2022-11-19T07:04:30.434Z,1007.28
2022-11-19T07:05:30.261Z,1007.27
2022-11-19T07:06:30.221Z,1007.26
2022-11-19T07:07:30.364Z,1007.29
2022-11-19T07:08:32.288Z,1007.29
2022-11-19T07:09:30.325Z,1007.30
2022-11-19T07:10:30.310Z,1007.33
2022-11-19T07:11:30.376Z,1007.25
2022-11-19T07:12:30.223Z,1007.30
2022-11-19T07:13:30.358Z,1007.31
2022-11-19T07:14:30.175Z,1007.28
2022-11-19T07:15:30.240Z,1007.29
2022-11-19T07:16:30.142Z,1007.35
2022-11-19T07:17:30.293Z,1007.29
2022-11-19T07:18:30.192Z,1007.32
2022-11-19T07:19:30.175Z,1007.37
2022-11-19T07:20:30.163Z,1007.35
2022-11-19T07:21:30.085Z,1007.35
2022-11-19T07:22:30.272Z,1007.31
2022-11-19T07:23:30.033Z,1007.40
2022-11-19T07:24:30.158Z,1007.37
2022-11-19T07:25:30.099Z,1007.38
2022-11-19T07:26:30.216Z,1007.40
2022-11-19T07:27:30.118Z,1007.38
2022-11-19T07:28:30.319Z,1007.45
2022-11-19T07:29:30.093Z,1007.44
2022-11-19T07:30:30.155Z,1007.46
2022-11-19T07:31:30.143Z,1007.47
2022-11-19T07:32:29.988Z,1007.48
2022-11-19T07:33:30.291Z,1007.47
2022-11-19T07:34:29.883Z,1007.46
2022-11-19T07:35:29.866Z,1007.53
2022-11-19T07:36:29.928Z,1007.46
2022-11-19T07:37:29.844Z,1007.51
2022-11-19T07:38:35.648Z,1007.50
2022-11-19T07:39:32.237Z,1007.51
2022-11-19T07:40:30.737Z,1007.54
2022-11-19T07:41:30.747Z,1007.63
2022-11-19T07:43:32.677Z,1007.61
2022-11-19T07:43:45.720Z,1007.67
2022-11-19T07:44:40.654Z,1007.61
2022-11-19T07:45:41.299Z,1007.61
2022-11-19T07:46:41.991Z,1007.65
2022-11-19T07:47:41.656Z,1007.66
2022-11-19T07:51:35.479Z,1007.74
2022-11-19T07:52:35.470Z,1007.71
2022-11-19T07:53:34.645Z,1007.63
2022-11-19T07:54:34.722Z,1007.74
2022-11-19T07:55:34.942Z,1007.73
2022-11-19T07:56:34.333Z,1007.76
2022-11-19T07:57:34.209Z,1007.74
2022-11-19T07:58:34.526Z,1007.73
2022-11-19T07:59:34.676Z,1007.68
2022-11-19T08:00:34.398Z,1007.66
2022-11-19T08:01:34.246Z,1007.68
2022-11-19T08:02:34.216Z,1007.72
2022-11-19T08:03:34.228Z,1007.73
2022-11-19T08:04:34.105Z,1007.77
2022-11-19T08:05:34.308Z,1007.81
2022-11-19T08:06:34.054Z,1007.79
2022-11-19T08:07:34.280Z,1007.82
2022-11-19T08:08:35.926Z,1007.80
2022-11-19T08:09:34.104Z,1007.84
2022-11-19T08:10:36.534Z,1007.87
2022-11-19T08:11:33.967Z,1007.81
2022-11-19T08:12:34.209Z,1007.82
2022-11-19T08:13:34.581Z,1007.84
2022-11-19T08:14:34.010Z,1007.83
2022-11-19T08:15:34.409Z,1007.80
2022-11-19T08:16:34.227Z,1007.83
2022-11-19T08:17:34.959Z,1007.85
2022-11-19T08:18:34.936Z,1007.93
2022-11-19T08:19:34.369Z,1007.83
2022-11-19T08:20:37.470Z,1007.86
2022-11-19T08:21:35.966Z,1007.86
2022-11-19T08:22:38.708Z,1007.89
2022-11-19T08:23:34.481Z,1007.88
2022-11-19T08:24:37.614Z,1007.85
2022-11-19T08:25:34.832Z,1007.85
2022-11-19T08:26:33.831Z,1007.84
2022-11-19T08:27:33.770Z,1007.84
2022-11-19T08:28:33.788Z,1007.85
2022-11-19T08:29:33.843Z,1007.90
2022-11-19T08:30:34.071Z,1007.95
2022-11-19T08:31:33.796Z,1007.92
2022-11-19T08:32:34.046Z,1007.91
2022-11-19T08:33:34.744Z,1007.95
2022-11-19T08:34:33.871Z,1007.90
2022-11-19T08:35:33.940Z,1007.90
2022-11-19T08:36:33.756Z,1007.93
2022-11-19T08:37:33.855Z,1007.96
2022-11-19T08:38:38.474Z,1007.94
2022-11-19T08:39:35.221Z,1007.90
2022-11-19T08:40:34.727Z,1007.92
2022-11-19T08:41:33.637Z,1007.93
2022-11-19T08:42:33.746Z,1007.94
2022-11-19T08:43:34.287Z,1007.90
2022-11-19T08:44:33.718Z,1007.91
2022-11-19T08:45:33.912Z,1007.94
2022-11-19T08:46:33.932Z,1007.99
2022-11-19T08:47:33.628Z,1008.06
2022-11-19T08:48:33.566Z,1008.08
2022-11-19T08:49:33.478Z,1008.02
2022-11-19T08:50:33.830Z,1008.04
2022-11-19T08:51:34.139Z,1007.96
2022-11-19T08:52:33.659Z,1008.10
2022-11-19T08:53:33.796Z,1008.10
2022-11-19T08:54:33.557Z,1008.16
2022-11-19T08:55:33.558Z,1008.13
2022-11-19T08:56:33.447Z,1008.04
2022-11-19T08:57:33.471Z,1008.06
2022-11-19T08:58:33.808Z,1008.08
2022-11-19T08:59:33.528Z,1008.12
2022-11-19T09:00:34.247Z,1008.09
2022-11-19T09:01:34.015Z,1008.11
2022-11-19T09:02:33.500Z,1008.12
2022-11-19T09:03:33.894Z,1008.16
2022-11-19T09:06:50.754Z,1008.23
2022-11-19T09:07:51.254Z,1008.18
2022-11-19T09:08:50.860Z,1008.18
2022-11-19T09:09:50.828Z,1008.28
2022-11-19T09:10:50.562Z,1008.21
2022-11-19T09:11:50.578Z,1008.23
2022-11-19T09:12:51.474Z,1008.22
2022-11-19T09:13:52.292Z,1008.25
2022-11-19T09:14:50.964Z,1008.26
2022-11-19T09:15:50.464Z,1008.32
2022-11-19T09:16:50.462Z,1008.35
2022-11-19T09:17:50.668Z,1008.34
2022-11-19T09:18:50.531Z,1008.31
2022-11-19T09:19:51.208Z,1008.40
2022-11-19T09:20:50.438Z,1008.29
2022-11-19T09:21:50.820Z,1008.36
2022-11-19T09:22:50.673Z,1008.38
2022-11-19T09:23:50.575Z,1008.38
2022-11-19T09:24:50.558Z,1008.35
2022-11-19T09:26:20.965Z,1008.41
2022-11-19T09:26:52.973Z,1008.42
2022-11-19T09:27:50.655Z,1008.44
2022-11-19T09:28:50.491Z,1008.45
2022-11-19T09:29:50.417Z,1008.47
2022-11-19T09:30:50.243Z,1008.39
2022-11-19T09:31:50.167Z,1008.43
2022-11-19T09:32:50.264Z,1008.44
2022-11-19T09:33:50.184Z,1008.49
2022-11-19T09:34:50.559Z,1008.44
2022-11-19T09:35:50.512Z,1008.50
2022-11-19T09:36:51.862Z,1008.53
2022-11-19T09:37:50.303Z,1008.48
2022-11-19T09:38:50.781Z,1008.47
2022-11-19T09:39:50.173Z,1008.46
2022-11-19T09:40:50.552Z,1008.50
2022-11-19T09:41:50.218Z,1008.48
2022-11-19T09:42:50.849Z,1008.42
2022-11-19T09:43:50.227Z,1008.39
2022-11-19T09:44:50.109Z,1008.48
2022-11-19T09:45:50.195Z,1008.41
2022-11-19T09:46:50.314Z,1008.35
2022-11-19T09:47:50.055Z,1008.34
2022-11-19T09:48:49.956Z,1008.38
2022-11-19T09:49:50.297Z,1008.32
2022-11-19T09:50:53.257Z,1008.38
2022-11-19T09:51:50.132Z,1008.42
2022-11-19T09:52:49.920Z,1008.40
2022-11-19T09:53:49.919Z,1008.33
2022-11-19T09:54:50.055Z,1008.45
2022-11-19T09:55:49.968Z,1008.37
2022-11-19T09:56:49.907Z,1008.38
2022-11-19T09:57:50.021Z,1008.35
2022-11-19T09:58:50.070Z,1008.37
2022-11-19T09:59:49.867Z,1008.39
2022-11-19T10:00:49.830Z,1008.31
2022-11-19T10:01:49.822Z,1008.27
2022-11-19T10:02:49.818Z,1008.26
2022-11-19T10:03:49.739Z,1008.31
2022-11-19T10:04:50.222Z,1008.29
2022-11-19T10:05:49.809Z,1008.22
2022-11-19T10:06:49.879Z,1008.29
2022-11-19T10:07:49.771Z,1008.23
2022-11-19T10:08:49.711Z,1008.28
2022-11-19T10:09:49.825Z,1008.29
2022-11-19T10:10:49.791Z,1008.29
2022-11-19T10:11:49.696Z,1008.29
2022-11-19T10:12:49.780Z,1008.31
2022-11-19T10:13:49.755Z,1008.35
2022-11-19T10:14:49.770Z,1008.34
2022-11-19T10:15:49.813Z,1008.26
2022-11-19T10:16:49.645Z,1008.32
2022-11-19T10:17:49.603Z,1008.32
2022-11-19T10:18:49.608Z,1008.36
2022-11-19T10:19:49.640Z,1008.33
2022-11-19T10:20:49.533Z,1008.35
2022-11-19T10:21:49.674Z,1008.34
2022-11-19T10:22:54.270Z,1008.43
2022-11-19T10:23:50.668Z,1008.38
2022-11-19T10:24:49.667Z,1008.37
2022-11-19T10:25:49.552Z,1008.43
2022-11-19T10:26:49.698Z,1008.47
2022-11-19T10:27:49.742Z,1008.38
2022-11-19T10:28:49.484Z,1008.36
2022-11-19T10:29:49.521Z,1008.49
2022-11-19T10:30:49.522Z,1008.48
2022-11-19T10:31:49.421Z,1008.48
2022-11-19T10:32:49.374Z,1008.47
2022-11-19T10:33:49.363Z,1008.44
2022-11-19T10:34:49.404Z,1008.44
2022-11-19T10:35:49.511Z,1008.42
2022-11-19T10:36:49.384Z,1008.46
2022-11-19T10:37:49.417Z,1008.43
2022-11-19T10:38:51.295Z,1008.49
2022-11-19T10:39:49.342Z,1008.47
2022-11-19T10:40:49.386Z,1008.52
2022-11-19T10:41:49.373Z,1008.51
2022-11-19T10:42:49.321Z,1008.51
2022-11-19T10:43:49.271Z,1008.46
2022-11-19T10:44:49.493Z,1008.40
2022-11-19T10:45:49.336Z,1008.43
2022-11-19T10:46:49.300Z,1008.43
2022-11-19T10:47:49.347Z,1008.39
2022-11-19T10:48:49.161Z,1008.42
2022-11-19T10:49:49.348Z,1008.50
2022-11-19T10:50:49.212Z,1008.49
2022-11-19T10:51:49.130Z,1008.47
2022-11-19T10:52:49.417Z,1008.43
2022-11-19T10:53:49.263Z,1008.44
2022-11-19T10:54:49.254Z,1008.45
2022-11-19T10:55:54.235Z,1008.51
2022-11-19T10:56:50.242Z,1008.47
2022-11-19T10:57:49.253Z,1008.42
2022-11-19T10:58:49.084Z,1008.35
2022-11-19T10:59:49.089Z,1008.32
2022-11-19T11:00:49.080Z,1008.29
2022-11-19T11:01:49.296Z,1008.25
2022-11-19T11:02:49.085Z,1008.24
2022-11-19T11:03:48.979Z,1008.30
2022-11-19T11:04:49.141Z,1008.30
2022-11-19T11:05:48.937Z,1008.22
2022-11-19T11:06:49.120Z,1008.31
2022-11-19T11:07:50.608Z,1008.23
2022-11-19T11:08:49.039Z,1008.26
2022-11-19T11:09:48.969Z,1008.28
2022-11-19T11:10:49.054Z,1008.27
2022-11-19T11:11:49.035Z,1008.26
2022-11-19T11:12:48.908Z,1008.23
2022-11-19T11:13:49.015Z,1008.23
2022-11-19T11:14:48.970Z,1008.25
2022-11-19T11:15:48.858Z,1008.26
2022-11-19T11:16:48.885Z,1008.17
2022-11-19T11:17:48.963Z,1008.16
2022-11-19T11:18:48.786Z,1008.19
2022-11-19T11:19:49.007Z,1008.20
2022-11-19T11:20:48.802Z,1008.22
2022-11-19T11:21:48.930Z,1008.17
2022-11-19T11:22:48.740Z,1008.17
2022-11-19T11:23:48.713Z,1008.18
2022-11-19T11:24:48.897Z,1008.18
2022-11-19T11:25:48.743Z,1008.19
2022-11-19T11:26:48.864Z,1008.14
2022-11-19T11:27:48.705Z,1008.15
2022-11-19T11:28:48.767Z,1008.17
2022-11-19T11:29:49.073Z,1008.15
2022-11-19T11:30:48.737Z,1008.15
2022-11-19T11:31:48.646Z,1008.12
2022-11-19T11:32:48.743Z,1008.15
2022-11-19T11:33:48.634Z,1008.13
2022-11-19T11:34:48.694Z,1008.14
2022-11-19T11:35:48.618Z,1008.13
2022-11-19T11:36:48.593Z,1008.11
2022-11-19T11:37:48.578Z,1008.12
2022-11-19T11:38:48.707Z,1008.12
2022-11-19T11:39:48.629Z,1008.10
2022-11-19T11:40:48.623Z,1008.09
2022-11-19T11:42:18.204Z,1008.12
2022-11-19T11:42:49.607Z,1008.12
2022-11-19T11:43:48.561Z,1008.11
2022-11-19T11:44:48.465Z,1008.12
2022-11-19T11:45:48.459Z,1008.09
2022-11-19T11:46:48.564Z,1008.11
2022-11-19T11:47:48.821Z,1008.12
2022-11-19T11:48:48.631Z,1008.18
2022-11-19T11:49:48.502Z,1008.21
2022-11-19T11:50:48.595Z,1008.20
2022-11-19T11:51:48.507Z,1008.21
2022-11-19T11:52:48.353Z,1008.24
2022-11-19T11:53:48.405Z,1008.24
2022-11-19T11:54:48.390Z,1008.25
2022-11-19T11:55:48.432Z,1008.22
2022-11-19T11:56:48.383Z,1008.18
2022-11-19T11:57:48.407Z,1008.25
2022-11-19T11:58:48.457Z,1008.19
2022-11-19T11:59:48.320Z,1008.20
2022-11-19T12:00:48.360Z,1008.18
2022-11-19T12:01:48.278Z,1008.13
2022-11-19T12:02:48.232Z,1008.16
2022-11-19T12:03:54.863Z,1008.13
2022-11-19T12:04:49.278Z,1008.15
2022-11-19T12:05:48.299Z,1008.16
2022-11-19T12:06:48.677Z,1008.10
2022-11-19T12:07:48.282Z,1008.12
2022-11-19T12:08:48.319Z,1008.11
2022-11-19T12:09:48.339Z,1008.07
2022-11-19T12:10:48.151Z,1008.05